sensor_id;sensor_type;location;lat;lon;timestamp;P1;durP1;ratioP1;P2;durP2;ratioP2
75508;SDS011;64214;47.250;11.332;2022-12-18T00:00:04;13.10;;;7.60;;
75508;SDS011;64214;47.250;11.332;2022-12-18T00:00:24;12.60;;;7.55;;
75508;SDS011;64214;47.250;11.332;2022-12-18T00:00:40;12.27;;;7.68;;
75508;SDS011;64214;47.250;11.332;2022-12-18T00:00:52;11.38;;;7.60;;
75508;SDS011;64214;47.250;11.332;2022-12-18T00:01:03;12.27;;;7.65;;
75508;SDS011;64214;47.250;11.332;2022-12-18T00:01:18;13.00;;;7.30;;
75508;SDS011;64214;47.250;11.332;2022-12-18T00:01:31;13.15;;;7.63;;
75508;SDS011;64214;47.250;11.332;2022-12-18T00:01:44;12.38;;;7.47;;
75508;SDS011;64214;47.250;11.332;2022-12-18T00:01:56;12.50;;;7.80;;
75508;SDS011;64214;47.250;11.332;2022-12-18T00:02:09;13.65;;;7.80;;
75508;SDS011;64214;47.250;11.332;2022-12-18T00:02:21;13.57;;;7.95;;
75508;SDS011;64214;47.250;11.332;2022-12-18T00:02:32;13.88;;;8.15;;
75508;SDS011;64214;47.250;11.332;2022-12-18T00:02:43;13.70;;;8.13;;
75508;SDS011;64214;47.250;11.332;2022-12-18T00:02:55;13.67;;;8.17;;
75508;SDS011;64214;47.250;11.332;2022-12-18T00:03:06;12.80;;;8.02;;
75508;SDS011;64214;47.250;11.332;2022-12-18T00:03:17;14.23;;;7.93;;
75508;SDS011;64214;47.250;11.332;2022-12-18T00:03:28;13.73;;;7.65;;
75508;SDS011;64214;47.250;11.332;2022-12-18T00:03:40;14.38;;;7.95;;
75508;SDS011;64214;47.250;11.332;2022-12-18T00:03:51;13.50;;;8.02;;
75508;SDS011;64214;47.250;11.332;2022-12-18T00:04:03;13.93;;;8.30;;
75508;SDS011;64214;47.250;11.332;2022-12-18T00:04:20;14.25;;;8.13;;
75508;SDS011;64214;47.250;11.332;2022-12-18T00:04:32;15.63;;;8.43;;
75508;SDS011;64214;47.250;11.332;2022-12-18T00:04:44;16.35;;;8.70;;
75508;SDS011;64214;47.250;11.332;2022-12-18T00:04:55;15.90;;;8.55;;
75508;SDS011;64214;47.250;11.332;2022-12-18T00:05:06;15.30;;;8.50;;
75508;SDS011;64214;47.250;11.332;2022-12-18T00:05:18;14.85;;;8.50;;
75508;SDS011;64214;47.250;11.332;2022-12-18T00:05:29;13.90;;;8.43;;
75508;SDS011;64214;47.250;11.332;2022-12-18T00:05:46;13.32;;;7.95;;
75508;SDS011;64214;47.250;11.332;2022-12-18T00:05:58;12.38;;;7.25;;
75508;SDS011;64214;47.250;11.332;2022-12-18T00:06:09;12.60;;;7.38;;
75508;SDS011;64214;47.250;11.332;2022-12-18T00:06:21;13.35;;;8.07;;
75508;SDS011;64214;47.250;11.332;2022-12-18T00:06:36;14.23;;;8.30;;
75508;SDS011;64214;47.250;11.332;2022-12-18T00:06:47;14.68;;;8.02;;
75508;SDS011;64214;47.250;11.332;2022-12-18T00:06:58;14.40;;;7.75;;
75508;SDS011;64214;47.250;11.332;2022-12-18T00:07:09;13.65;;;7.80;;
75508;SDS011;64214;47.250;11.332;2022-12-18T00:07:21;13.05;;;7.90;;
75508;SDS011;64214;47.250;11.332;2022-12-18T00:07:32;13.98;;;8.13;;
75508;SDS011;64214;47.250;11.332;2022-12-18T00:07:43;14.10;;;8.50;;
75508;SDS011;64214;47.250;11.332;2022-12-18T00:07:55;14.57;;;8.50;;
75508;SDS011;64214;47.250;11.332;2022-12-18T00:08:06;14.93;;;7.90;;
75508;SDS011;64214;47.250;11.332;2022-12-18T00:08:17;14.20;;;7.43;;
75508;SDS011;64214;47.250;11.332;2022-12-18T00:08:29;12.70;;;7.28;;
75508;SDS011;64214;47.250;11.332;2022-12-18T00:08:41;11.57;;;7.32;;
75508;SDS011;64214;47.250;11.332;2022-12-18T00:08:52;11.07;;;7.18;;
75508;SDS011;64214;47.250;11.332;2022-12-18T00:09:04;11.02;;;7.15;;
75508;SDS011;64214;47.250;11.332;2022-12-18T00:09:15;12.82;;;7.47;;
75508;SDS011;64214;47.250;11.332;2022-12-18T00:09:26;12.85;;;7.57;;
75508;SDS011;64214;47.250;11.332;2022-12-18T00:09:37;12.05;;;7.38;;
75508;SDS011;64214;47.250;11.332;2022-12-18T00:09:48;11.10;;;7.28;;
75508;SDS011;64214;47.250;11.332;2022-12-18T00:10:00;11.82;;;7.00;;
75508;SDS011;64214;47.250;11.332;2022-12-18T00:10:11;12.00;;;7.00;;
75508;SDS011;64214;47.250;11.332;2022-12-18T00:10:22;12.35;;;7.00;;
75508;SDS011;64214;47.250;11.332;2022-12-18T00:10:33;11.73;;;7.13;;
75508;SDS011;64214;47.250;11.332;2022-12-18T00:10:44;11.85;;;7.43;;
75508;SDS011;64214;47.250;11.332;2022-12-18T00:10:56;11.50;;;7.32;;
75508;SDS011;64214;47.250;11.332;2022-12-18T00:11:16;12.05;;;7.38;;
75508;SDS011;64214;47.250;11.332;2022-12-18T00:11:29;11.77;;;7.20;;
75508;SDS011;64214;47.250;11.332;2022-12-18T00:11:41;11.00;;;7.03;;
75508;SDS011;64214;47.250;11.332;2022-12-18T00:11:52;11.57;;;7.20;;
75508;SDS011;64214;47.250;11.332;2022-12-18T00:12:03;11.52;;;7.07;;
75508;SDS011;64214;47.250;11.332;2022-12-18T00:12:15;11.82;;;7.13;;
75508;SDS011;64214;47.250;11.332;2022-12-18T00:12:26;12.27;;;7.43;;
75508;SDS011;64214;47.250;11.332;2022-12-18T00:12:37;12.35;;;7.68;;
75508;SDS011;64214;47.250;11.332;2022-12-18T00:12:48;12.60;;;7.55;;
75508;SDS011;64214;47.250;11.332;2022-12-18T00:12:59;12.52;;;7.32;;
75508;SDS011;64214;47.250;11.332;2022-12-18T00:13:11;12.75;;;7.35;;
75508;SDS011;64214;47.250;11.332;2022-12-18T00:13:22;11.30;;;7.60;;
75508;SDS011;64214;47.250;11.332;2022-12-18T00:13:33;11.85;;;7.70;;
75508;SDS011;64214;47.250;11.332;2022-12-18T00:13:45;12.65;;;7.50;;
75508;SDS011;64214;47.250;11.332;2022-12-18T00:13:58;13.38;;;7.60;;
75508;SDS011;64214;47.250;11.332;2022-12-18T00:14:10;12.70;;;7.28;;
75508;SDS011;64214;47.250;11.332;2022-12-18T00:14:22;12.43;;;7.05;;
75508;SDS011;64214;47.250;11.332;2022-12-18T00:14:34;12.75;;;7.18;;
75508;SDS011;64214;47.250;11.332;2022-12-18T00:14:45;13.93;;;7.50;;
75508;SDS011;64214;47.250;11.332;2022-12-18T00:14:56;13.52;;;7.30;;
75508;SDS011;64214;47.250;11.332;2022-12-18T00:15:07;12.13;;;7.00;;
75508;SDS011;64214;47.250;11.332;2022-12-18T00:15:19;11.13;;;6.97;;
75508;SDS011;64214;47.250;11.332;2022-12-18T00:15:30;12.50;;;7.35;;
75508;SDS011;64214;47.250;11.332;2022-12-18T00:15:44;13.38;;;7.55;;
75508;SDS011;64214;47.250;11.332;2022-12-18T00:15:55;12.93;;;7.53;;
75508;SDS011;64214;47.250;11.332;2022-12-18T00:16:21;11.35;;;6.95;;
75508;SDS011;64214;47.250;11.332;2022-12-18T00:16:32;12.10;;;7.10;;
75508;SDS011;64214;47.250;11.332;2022-12-18T00:16:46;12.27;;;7.30;;
75508;SDS011;64214;47.250;11.332;2022-12-18T00:16:57;11.65;;;6.82;;
75508;SDS011;64214;47.250;11.332;2022-12-18T00:17:11;12.10;;;7.00;;
75508;SDS011;64214;47.250;11.332;2022-12-18T00:17:22;13.07;;;7.25;;
75508;SDS011;64214;47.250;11.332;2022-12-18T00:17:33;13.68;;;7.80;;
75508;SDS011;64214;47.250;11.332;2022-12-18T00:17:44;13.85;;;7.70;;
75508;SDS011;64214;47.250;11.332;2022-12-18T00:17:55;13.10;;;7.57;;
75508;SDS011;64214;47.250;11.332;2022-12-18T00:18:06;12.07;;;7.15;;
75508;SDS011;64214;47.250;11.332;2022-12-18T00:18:17;11.25;;;7.05;;
75508;SDS011;64214;47.250;11.332;2022-12-18T00:18:28;11.52;;;6.93;;
75508;SDS011;64214;47.250;11.332;2022-12-18T00:18:40;12.53;;;7.07;;
75508;SDS011;64214;47.250;11.332;2022-12-18T00:18:52;13.18;;;7.20;;
75508;SDS011;64214;47.250;11.332;2022-12-18T00:19:08;12.02;;;7.28;;
75508;SDS011;64214;47.250;11.332;2022-12-18T00:19:19;11.52;;;7.15;;
75508;SDS011;64214;47.250;11.332;2022-12-18T00:19:30;11.38;;;7.05;;
75508;SDS011;64214;47.250;11.332;2022-12-18T00:19:43;10.95;;;6.97;;
75508;SDS011;64214;47.250;11.332;2022-12-18T00:19:54;11.20;;;7.03;;
75508;SDS011;64214;47.250;11.332;2022-12-18T00:20:05;11.75;;;7.30;;
75508;SDS011;64214;47.250;11.332;2022-12-18T00:20:17;12.25;;;7.50;;
75508;SDS011;64214;47.250;11.332;2022-12-18T00:20:37;11.73;;;7.07;;
75508;SDS011;64214;47.250;11.332;2022-12-18T00:20:49;11.30;;;6.85;;
75508;SDS011;64214;47.250;11.332;2022-12-18T00:21:01;11.30;;;6.68;;
75508;SDS011;64214;47.250;11.332;2022-12-18T00:21:13;11.02;;;6.95;;
75508;SDS011;64214;47.250;11.332;2022-12-18T00:21:25;12.77;;;7.72;;
75508;SDS011;64214;47.250;11.332;2022-12-18T00:21:37;13.68;;;8.07;;
75508;SDS011;64214;47.250;11.332;2022-12-18T00:21:48;13.60;;;7.82;;
75508;SDS011;64214;47.250;11.332;2022-12-18T00:21:59;13.10;;;7.30;;
75508;SDS011;64214;47.250;11.332;2022-12-18T00:22:10;12.60;;;7.18;;
75508;SDS011;64214;47.250;11.332;2022-12-18T00:22:21;12.43;;;7.00;;
75508;SDS011;64214;47.250;11.332;2022-12-18T00:22:32;11.68;;;6.97;;
75508;SDS011;64214;47.250;11.332;2022-12-18T00:22:43;11.32;;;7.13;;
75508;SDS011;64214;47.250;11.332;2022-12-18T00:22:55;11.68;;;7.20;;
75508;SDS011;64214;47.250;11.332;2022-12-18T00:23:06;11.88;;;7.25;;
75508;SDS011;64214;47.250;11.332;2022-12-18T00:23:17;12.35;;;7.60;;
75508;SDS011;64214;47.250;11.332;2022-12-18T00:23:29;13.40;;;7.97;;
75508;SDS011;64214;47.250;11.332;2022-12-18T00:23:41;12.98;;;7.70;;
75508;SDS011;64214;47.250;11.332;2022-12-18T00:23:53;12.70;;;7.57;;
75508;SDS011;64214;47.250;11.332;2022-12-18T00:24:05;12.43;;;7.35;;
75508;SDS011;64214;47.250;11.332;2022-12-18T00:24:16;12.25;;;7.65;;
75508;SDS011;64214;47.250;11.332;2022-12-18T00:24:27;13.68;;;8.00;;
75508;SDS011;64214;47.250;11.332;2022-12-18T00:24:38;13.60;;;8.02;;
75508;SDS011;64214;47.250;11.332;2022-12-18T00:24:49;12.45;;;7.40;;
75508;SDS011;64214;47.250;11.332;2022-12-18T00:25:01;12.25;;;7.13;;
75508;SDS011;64214;47.250;11.332;2022-12-18T00:25:12;12.65;;;7.15;;
75508;SDS011;64214;47.250;11.332;2022-12-18T00:25:23;13.02;;;7.47;;
75508;SDS011;64214;47.250;11.332;2022-12-18T00:25:34;13.07;;;7.75;;
75508;SDS011;64214;47.250;11.332;2022-12-18T00:25:46;12.77;;;7.90;;
75508;SDS011;64214;47.250;11.332;2022-12-18T00:26:01;12.40;;;7.35;;
75508;SDS011;64214;47.250;11.332;2022-12-18T00:26:16;14.27;;;7.05;;
75508;SDS011;64214;47.250;11.332;2022-12-18T00:26:29;14.10;;;7.13;;
75508;SDS011;64214;47.250;11.332;2022-12-18T00:26:44;12.77;;;7.40;;
75508;SDS011;64214;47.250;11.332;2022-12-18T00:26:55;12.80;;;7.72;;
75508;SDS011;64214;47.250;11.332;2022-12-18T00:27:07;12.77;;;7.75;;
75508;SDS011;64214;47.250;11.332;2022-12-18T00:27:18;12.73;;;7.45;;
75508;SDS011;64214;47.250;11.332;2022-12-18T00:27:29;12.93;;;7.90;;
75508;SDS011;64214;47.250;11.332;2022-12-18T00:27:40;13.77;;;8.68;;
75508;SDS011;64214;47.250;11.332;2022-12-18T00:27:51;13.70;;;8.52;;
75508;SDS011;64214;47.250;11.332;2022-12-18T00:28:03;14.13;;;8.27;;
75508;SDS011;64214;47.250;11.332;2022-12-18T00:28:14;13.73;;;7.60;;
75508;SDS011;64214;47.250;11.332;2022-12-18T00:28:25;13.48;;;7.63;;
75508;SDS011;64214;47.250;11.332;2022-12-18T00:28:36;13.45;;;7.95;;
75508;SDS011;64214;47.250;11.332;2022-12-18T00:28:47;13.77;;;8.18;;
75508;SDS011;64214;47.250;11.332;2022-12-18T00:29:02;14.10;;;8.50;;
75508;SDS011;64214;47.250;11.332;2022-12-18T00:29:16;14.98;;;8.60;;
75508;SDS011;64214;47.250;11.332;2022-12-18T00:29:27;15.10;;;8.40;;
75508;SDS011;64214;47.250;11.332;2022-12-18T00:29:38;14.30;;;7.90;;
75508;SDS011;64214;47.250;11.332;2022-12-18T00:29:50;13.57;;;7.80;;
75508;SDS011;64214;47.250;11.332;2022-12-18T00:30:01;13.30;;;7.97;;
75508;SDS011;64214;47.250;11.332;2022-12-18T00:30:12;14.48;;;8.65;;
75508;SDS011;64214;47.250;11.332;2022-12-18T00:30:23;16.33;;;9.20;;
75508;SDS011;64214;47.250;11.332;2022-12-18T00:30:34;16.90;;;9.35;;
75508;SDS011;64214;47.250;11.332;2022-12-18T00:30:45;16.17;;;9.10;;
75508;SDS011;64214;47.250;11.332;2022-12-18T00:31:00;14.27;;;8.95;;
75508;SDS011;64214;47.250;11.332;2022-12-18T00:31:17;15.65;;;9.48;;
75508;SDS011;64214;47.250;11.332;2022-12-18T00:31:29;16.20;;;9.60;;
75508;SDS011;64214;47.250;11.332;2022-12-18T00:31:41;16.45;;;10.00;;
75508;SDS011;64214;47.250;11.332;2022-12-18T00:31:52;17.70;;;11.02;;
75508;SDS011;64214;47.250;11.332;2022-12-18T00:32:04;18.00;;;11.30;;
75508;SDS011;64214;47.250;11.332;2022-12-18T00:32:15;18.63;;;11.63;;
75508;SDS011;64214;47.250;11.332;2022-12-18T00:32:26;19.10;;;11.38;;
75508;SDS011;64214;47.250;11.332;2022-12-18T00:32:37;19.25;;;11.38;;
75508;SDS011;64214;47.250;11.332;2022-12-18T00:32:48;19.45;;;11.57;;
75508;SDS011;64214;47.250;11.332;2022-12-18T00:32:59;21.10;;;11.85;;
75508;SDS011;64214;47.250;11.332;2022-12-18T00:33:10;22.10;;;12.35;;
75508;SDS011;64214;47.250;11.332;2022-12-18T00:33:21;22.35;;;12.70;;
75508;SDS011;64214;47.250;11.332;2022-12-18T00:33:33;23.40;;;13.52;;
75508;SDS011;64214;47.250;11.332;2022-12-18T00:33:44;24.35;;;14.20;;
75508;SDS011;64214;47.250;11.332;2022-12-18T00:33:55;24.30;;;14.73;;
75508;SDS011;64214;47.250;11.332;2022-12-18T00:34:09;22.95;;;14.50;;
75508;SDS011;64214;47.250;11.332;2022-12-18T00:34:24;22.33;;;13.85;;
75508;SDS011;64214;47.250;11.332;2022-12-18T00:34:36;22.50;;;13.90;;
75508;SDS011;64214;47.250;11.332;2022-12-18T00:34:47;23.40;;;13.93;;
75508;SDS011;64214;47.250;11.332;2022-12-18T00:34:59;23.48;;;13.63;;
75508;SDS011;64214;47.250;11.332;2022-12-18T00:35:10;23.17;;;13.38;;
75508;SDS011;64214;47.250;11.332;2022-12-18T00:35:22;22.65;;;13.20;;
75508;SDS011;64214;47.250;11.332;2022-12-18T00:35:33;22.33;;;12.90;;
75508;SDS011;64214;47.250;11.332;2022-12-18T00:35:44;21.35;;;12.48;;
75508;SDS011;64214;47.250;11.332;2022-12-18T00:35:59;20.08;;;12.23;;
75508;SDS011;64214;47.250;11.332;2022-12-18T00:36:13;21.13;;;12.75;;
75508;SDS011;64214;47.250;11.332;2022-12-18T00:36:26;21.17;;;12.87;;
75508;SDS011;64214;47.250;11.332;2022-12-18T00:36:40;20.40;;;12.75;;
75508;SDS011;64214;47.250;11.332;2022-12-18T00:36:51;21.08;;;12.50;;
75508;SDS011;64214;47.250;11.332;2022-12-18T00:37:02;21.10;;;12.48;;
75508;SDS011;64214;47.250;11.332;2022-12-18T00:37:13;20.40;;;12.00;;
75508;SDS011;64214;47.250;11.332;2022-12-18T00:37:25;19.52;;;11.57;;
75508;SDS011;64214;47.250;11.332;2022-12-18T00:37:36;17.45;;;10.90;;
75508;SDS011;64214;47.250;11.332;2022-12-18T00:37:47;16.15;;;10.32;;
75508;SDS011;64214;47.250;11.332;2022-12-18T00:37:58;16.83;;;10.35;;
75508;SDS011;64214;47.250;11.332;2022-12-18T00:38:09;16.73;;;10.23;;
75508;SDS011;64214;47.250;11.332;2022-12-18T00:38:20;17.05;;;10.45;;
75508;SDS011;64214;47.250;11.332;2022-12-18T00:38:31;17.25;;;10.27;;
75508;SDS011;64214;47.250;11.332;2022-12-18T00:38:43;17.40;;;10.40;;
75508;SDS011;64214;47.250;11.332;2022-12-18T00:38:55;17.38;;;10.43;;
75508;SDS011;64214;47.250;11.332;2022-12-18T00:39:07;16.95;;;10.18;;
75508;SDS011;64214;47.250;11.332;2022-12-18T00:39:19;16.10;;;9.85;;
75508;SDS011;64214;47.250;11.332;2022-12-18T00:39:30;15.15;;;9.80;;
75508;SDS011;64214;47.250;11.332;2022-12-18T00:39:41;15.00;;;9.95;;
75508;SDS011;64214;47.250;11.332;2022-12-18T00:39:52;15.82;;;9.82;;
75508;SDS011;64214;47.250;11.332;2022-12-18T00:40:04;16.30;;;9.82;;
75508;SDS011;64214;47.250;11.332;2022-12-18T00:40:16;16.45;;;10.05;;
75508;SDS011;64214;47.250;11.332;2022-12-18T00:40:27;16.20;;;9.88;;
75508;SDS011;64214;47.250;11.332;2022-12-18T00:40:38;16.13;;;9.63;;
75508;SDS011;64214;47.250;11.332;2022-12-18T00:40:49;14.63;;;8.88;;
75508;SDS011;64214;47.250;11.332;2022-12-18T00:41:01;14.88;;;9.18;;
75508;SDS011;64214;47.250;11.332;2022-12-18T00:41:13;14.48;;;9.75;;
75508;SDS011;64214;47.250;11.332;2022-12-18T00:41:45;14.80;;;8.43;;
75508;SDS011;64214;47.250;11.332;2022-12-18T00:42:15;14.73;;;8.50;;
75508;SDS011;64214;47.250;11.332;2022-12-18T00:42:45;13.07;;;7.72;;
75508;SDS011;64214;47.250;11.332;2022-12-18T00:43:08;12.88;;;7.55;;
75508;SDS011;64214;47.250;11.332;2022-12-18T00:43:19;12.65;;;7.25;;
75508;SDS011;64214;47.250;11.332;2022-12-18T00:43:31;13.30;;;7.43;;
75508;SDS011;64214;47.250;11.332;2022-12-18T00:43:42;13.80;;;7.90;;
75508;SDS011;64214;47.250;11.332;2022-12-18T00:43:53;13.02;;;7.60;;
75508;SDS011;64214;47.250;11.332;2022-12-18T00:44:05;13.82;;;7.80;;
75508;SDS011;64214;47.250;11.332;2022-12-18T00:44:18;13.02;;;7.68;;
75508;SDS011;64214;47.250;11.332;2022-12-18T00:44:29;13.60;;;8.00;;
75508;SDS011;64214;47.250;11.332;2022-12-18T00:44:40;13.85;;;7.95;;
75508;SDS011;64214;47.250;11.332;2022-12-18T00:44:51;13.23;;;7.80;;
75508;SDS011;64214;47.250;11.332;2022-12-18T00:45:03;13.23;;;7.80;;
75508;SDS011;64214;47.250;11.332;2022-12-18T00:45:16;14.13;;;8.05;;
75508;SDS011;64214;47.250;11.332;2022-12-18T00:45:28;14.45;;;8.07;;
75508;SDS011;64214;47.250;11.332;2022-12-18T00:45:40;14.05;;;8.20;;
75508;SDS011;64214;47.250;11.332;2022-12-18T00:45:52;13.63;;;7.95;;
75508;SDS011;64214;47.250;11.332;2022-12-18T00:46:03;13.35;;;7.65;;
75508;SDS011;64214;47.250;11.332;2022-12-18T00:46:16;13.23;;;7.38;;
75508;SDS011;64214;47.250;11.332;2022-12-18T00:46:27;12.52;;;7.18;;
75508;SDS011;64214;47.250;11.332;2022-12-18T00:46:38;12.25;;;7.32;;
75508;SDS011;64214;47.250;11.332;2022-12-18T00:46:49;12.68;;;7.22;;
75508;SDS011;64214;47.250;11.332;2022-12-18T00:47:01;12.75;;;7.25;;
75508;SDS011;64214;47.250;11.332;2022-12-18T00:47:12;12.63;;;7.25;;
75508;SDS011;64214;47.250;11.332;2022-12-18T00:47:23;12.40;;;7.35;;
75508;SDS011;64214;47.250;11.332;2022-12-18T00:47:34;12.65;;;7.85;;
75508;SDS011;64214;47.250;11.332;2022-12-18T00:47:45;12.98;;;7.97;;
75508;SDS011;64214;47.250;11.332;2022-12-18T00:47:57;13.27;;;8.05;;
75508;SDS011;64214;47.250;11.332;2022-12-18T00:48:08;13.45;;;7.68;;
75508;SDS011;64214;47.250;11.332;2022-12-18T00:48:19;13.82;;;7.85;;
75508;SDS011;64214;47.250;11.332;2022-12-18T00:48:30;13.55;;;7.75;;
75508;SDS011;64214;47.250;11.332;2022-12-18T00:48:42;13.80;;;8.05;;
75508;SDS011;64214;47.250;11.332;2022-12-18T00:48:53;13.80;;;8.30;;
75508;SDS011;64214;47.250;11.332;2022-12-18T00:49:04;13.70;;;8.57;;
75508;SDS011;64214;47.250;11.332;2022-12-18T00:49:17;12.38;;;8.30;;
75508;SDS011;64214;47.250;11.332;2022-12-18T00:49:29;13.25;;;8.00;;
75508;SDS011;64214;47.250;11.332;2022-12-18T00:49:40;13.60;;;7.78;;
75508;SDS011;64214;47.250;11.332;2022-12-18T00:49:51;13.27;;;7.50;;
75508;SDS011;64214;47.250;11.332;2022-12-18T00:50:02;12.98;;;7.35;;
75508;SDS011;64214;47.250;11.332;2022-12-18T00:50:14;11.75;;;7.07;;
75508;SDS011;64214;47.250;11.332;2022-12-18T00:50:25;11.13;;;7.22;;
75508;SDS011;64214;47.250;11.332;2022-12-18T00:50:37;12.40;;;7.35;;
75508;SDS011;64214;47.250;11.332;2022-12-18T00:50:49;13.23;;;7.70;;
75508;SDS011;64214;47.250;11.332;2022-12-18T00:51:00;13.52;;;7.80;;
75508;SDS011;64214;47.250;11.332;2022-12-18T00:51:11;12.98;;;7.78;;
75508;SDS011;64214;47.250;11.332;2022-12-18T00:51:23;12.15;;;7.55;;
75508;SDS011;64214;47.250;11.332;2022-12-18T00:51:34;12.15;;;7.32;;
75508;SDS011;64214;47.250;11.332;2022-12-18T00:51:46;13.90;;;7.65;;
75508;SDS011;64214;47.250;11.332;2022-12-18T00:51:57;13.73;;;7.38;;
75508;SDS011;64214;47.250;11.332;2022-12-18T00:52:08;12.90;;;7.30;;
75508;SDS011;64214;47.250;11.332;2022-12-18T00:52:20;12.40;;;6.93;;
75508;SDS011;64214;47.250;11.332;2022-12-18T00:52:31;12.43;;;6.88;;
75508;SDS011;64214;47.250;11.332;2022-12-18T00:52:42;12.88;;;7.22;;
75508;SDS011;64214;47.250;11.332;2022-12-18T00:52:53;12.30;;;7.50;;
75508;SDS011;64214;47.250;11.332;2022-12-18T00:53:04;13.13;;;7.68;;
75508;SDS011;64214;47.250;11.332;2022-12-18T00:53:16;12.48;;;7.30;;
75508;SDS011;64214;47.250;11.332;2022-12-18T00:53:27;13.27;;;7.32;;
75508;SDS011;64214;47.250;11.332;2022-12-18T00:53:39;13.38;;;7.55;;
75508;SDS011;64214;47.250;11.332;2022-12-18T00:53:51;12.93;;;7.55;;
75508;SDS011;64214;47.250;11.332;2022-12-18T00:54:03;12.05;;;7.20;;
75508;SDS011;64214;47.250;11.332;2022-12-18T00:54:15;12.05;;;7.07;;
75508;SDS011;64214;47.250;11.332;2022-12-18T00:54:26;13.05;;;7.25;;
75508;SDS011;64214;47.250;11.332;2022-12-18T00:54:37;12.77;;;7.10;;
75508;SDS011;64214;47.250;11.332;2022-12-18T00:54:48;12.80;;;7.35;;
75508;SDS011;64214;47.250;11.332;2022-12-18T00:54:59;13.10;;;7.53;;
75508;SDS011;64214;47.250;11.332;2022-12-18T00:55:11;14.30;;;8.10;;
75508;SDS011;64214;47.250;11.332;2022-12-18T00:55:22;14.52;;;8.02;;
75508;SDS011;64214;47.250;11.332;2022-12-18T00:55:33;13.90;;;8.10;;
75508;SDS011;64214;47.250;11.332;2022-12-18T00:55:45;13.23;;;8.32;;
75508;SDS011;64214;47.250;11.332;2022-12-18T00:55:56;12.57;;;8.30;;
75508;SDS011;64214;47.250;11.332;2022-12-18T00:56:07;12.63;;;8.27;;
75508;SDS011;64214;47.250;11.332;2022-12-18T00:56:19;13.35;;;7.97;;
75508;SDS011;64214;47.250;11.332;2022-12-18T00:56:30;13.35;;;7.97;;
75508;SDS011;64214;47.250;11.332;2022-12-18T00:56:41;14.77;;;8.27;;
75508;SDS011;64214;47.250;11.332;2022-12-18T00:56:52;14.20;;;8.45;;
75508;SDS011;64214;47.250;11.332;2022-12-18T00:57:05;13.40;;;7.93;;
75508;SDS011;64214;47.250;11.332;2022-12-18T00:57:16;13.10;;;7.57;;
75508;SDS011;64214;47.250;11.332;2022-12-18T00:57:27;12.77;;;7.30;;
75508;SDS011;64214;47.250;11.332;2022-12-18T00:57:39;14.85;;;7.97;;
75508;SDS011;64214;47.250;11.332;2022-12-18T00:57:51;15.13;;;7.80;;
75508;SDS011;64214;47.250;11.332;2022-12-18T00:58:03;15.52;;;8.02;;
75508;SDS011;64214;47.250;11.332;2022-12-18T00:58:15;16.13;;;8.45;;
75508;SDS011;64214;47.250;11.332;2022-12-18T00:58:27;15.23;;;8.43;;
75508;SDS011;64214;47.250;11.332;2022-12-18T00:58:38;14.48;;;8.07;;
75508;SDS011;64214;47.250;11.332;2022-12-18T00:58:49;15.60;;;8.43;;
75508;SDS011;64214;47.250;11.332;2022-12-18T00:59:00;15.38;;;8.43;;
75508;SDS011;64214;47.250;11.332;2022-12-18T00:59:12;13.23;;;8.00;;
75508;SDS011;64214;47.250;11.332;2022-12-18T00:59:23;13.02;;;7.45;;
75508;SDS011;64214;47.250;11.332;2022-12-18T00:59:35;14.30;;;7.93;;
75508;SDS011;64214;47.250;11.332;2022-12-18T00:59:46;15.95;;;8.80;;
75508;SDS011;64214;47.250;11.332;2022-12-18T00:59:57;15.43;;;8.60;;
75508;SDS011;64214;47.250;11.332;2022-12-18T01:00:09;14.60;;;8.15;;
75508;SDS011;64214;47.250;11.332;2022-12-18T01:00:23;14.07;;;7.85;;
75508;SDS011;64214;47.250;11.332;2022-12-18T01:00:34;13.90;;;8.10;;
75508;SDS011;64214;47.250;11.332;2022-12-18T01:00:45;13.60;;;7.80;;
75508;SDS011;64214;47.250;11.332;2022-12-18T01:00:56;14.27;;;8.10;;
75508;SDS011;64214;47.250;11.332;2022-12-18T01:01:07;15.13;;;8.40;;
75508;SDS011;64214;47.250;11.332;2022-12-18T01:01:19;14.85;;;8.50;;
75508;SDS011;64214;47.250;11.332;2022-12-18T01:01:30;14.23;;;8.27;;
75508;SDS011;64214;47.250;11.332;2022-12-18T01:01:43;13.85;;;8.38;;
75508;SDS011;64214;47.250;11.332;2022-12-18T01:01:54;14.45;;;8.43;;
75508;SDS011;64214;47.250;11.332;2022-12-18T01:02:05;14.70;;;8.52;;
75508;SDS011;64214;47.250;11.332;2022-12-18T01:02:16;14.52;;;8.07;;
75508;SDS011;64214;47.250;11.332;2022-12-18T01:02:27;13.18;;;7.88;;
75508;SDS011;64214;47.250;11.332;2022-12-18T01:02:39;12.00;;;7.65;;
75508;SDS011;64214;47.250;11.332;2022-12-18T01:02:51;13.10;;;8.25;;
75508;SDS011;64214;47.250;11.332;2022-12-18T01:03:02;13.90;;;8.65;;
75508;SDS011;64214;47.250;11.332;2022-12-18T01:03:14;13.85;;;8.43;;
75508;SDS011;64214;47.250;11.332;2022-12-18T01:03:28;13.05;;;8.05;;
75508;SDS011;64214;47.250;11.332;2022-12-18T01:03:39;15.05;;;8.35;;
75508;SDS011;64214;47.250;11.332;2022-12-18T01:03:50;16.15;;;8.55;;
75508;SDS011;64214;47.250;11.332;2022-12-18T01:04:02;15.65;;;8.52;;
75508;SDS011;64214;47.250;11.332;2022-12-18T01:04:13;13.98;;;8.30;;
75508;SDS011;64214;47.250;11.332;2022-12-18T01:04:25;14.80;;;7.97;;
75508;SDS011;64214;47.250;11.332;2022-12-18T01:04:36;14.32;;;8.07;;
75508;SDS011;64214;47.250;11.332;2022-12-18T01:04:47;14.35;;;8.15;;
75508;SDS011;64214;47.250;11.332;2022-12-18T01:05:01;15.05;;;8.50;;
75508;SDS011;64214;47.250;11.332;2022-12-18T01:05:12;14.98;;;8.30;;
75508;SDS011;64214;47.250;11.332;2022-12-18T01:05:24;15.07;;;8.35;;
75508;SDS011;64214;47.250;11.332;2022-12-18T01:05:39;13.82;;;7.72;;
75508;SDS011;64214;47.250;11.332;2022-12-18T01:05:51;13.05;;;7.53;;
75508;SDS011;64214;47.250;11.332;2022-12-18T01:06:06;13.48;;;7.85;;
75508;SDS011;64214;47.250;11.332;2022-12-18T01:06:18;12.82;;;7.88;;
75508;SDS011;64214;47.250;11.332;2022-12-18T01:06:29;13.98;;;7.78;;
75508;SDS011;64214;47.250;11.332;2022-12-18T01:06:40;14.20;;;7.90;;
75508;SDS011;64214;47.250;11.332;2022-12-18T01:06:51;14.32;;;8.20;;
75508;SDS011;64214;47.250;11.332;2022-12-18T01:07:05;13.60;;;8.55;;
75508;SDS011;64214;47.250;11.332;2022-12-18T01:07:19;14.23;;;8.60;;
75508;SDS011;64214;47.250;11.332;2022-12-18T01:07:30;14.70;;;8.38;;
75508;SDS011;64214;47.250;11.332;2022-12-18T01:07:41;15.75;;;8.20;;
75508;SDS011;64214;47.250;11.332;2022-12-18T01:07:52;14.85;;;7.82;;
75508;SDS011;64214;47.250;11.332;2022-12-18T01:08:04;14.55;;;7.63;;
75508;SDS011;64214;47.250;11.332;2022-12-18T01:08:15;13.60;;;7.40;;
75508;SDS011;64214;47.250;11.332;2022-12-18T01:08:28;14.48;;;7.88;;
75508;SDS011;64214;47.250;11.332;2022-12-18T01:08:39;14.10;;;8.02;;
75508;SDS011;64214;47.250;11.332;2022-12-18T01:08:50;14.60;;;7.88;;
75508;SDS011;64214;47.250;11.332;2022-12-18T01:09:01;14.13;;;7.80;;
75508;SDS011;64214;47.250;11.332;2022-12-18T01:09:13;13.57;;;7.97;;
75508;SDS011;64214;47.250;11.332;2022-12-18T01:09:24;13.18;;;8.40;;
75508;SDS011;64214;47.250;11.332;2022-12-18T01:09:36;13.93;;;8.40;;
75508;SDS011;64214;47.250;11.332;2022-12-18T01:09:47;15.07;;;8.40;;
75508;SDS011;64214;47.250;11.332;2022-12-18T01:09:58;15.88;;;8.43;;
75508;SDS011;64214;47.250;11.332;2022-12-18T01:10:11;15.18;;;8.55;;